Airfield :
LOGIN :

Register | Disclaimer

   EN    FR    IT 

 










Legend :    VFR   Marginal VFR   IFR   Intensive IFR   Very Intensive IFR
Visi :
Ceiling :
>= 8 km
>= 3000ft
5 to 8 km
1000 to 3000 ft
1500m to 5 km
500 to 1000 ft
800 to 1500m
200 to 500 ft
< 800m
< 200 ft
Symbols :   Thunderstorms  Fog  Heavy snow  Heavy precipitations  Wind > 20 kt
SIGMETs :     Misc.  Thunderstorms  Icing  Turbulence  Mountain Waves  Volcanic Ashes






- Airport Elevation : 436 ft
- IATA code : BTS


LZIB - Bratislava

CURRENT METAR :
  • 181900Z 15005KT CAVOK 25/18 Q1015 NOSIG

EXPIRED METARs :
  • 181830Z 14005KT CAVOK 26/18 Q1014 NOSIG
  • 181730Z 15008KT CAVOK 29/17 Q1015 NOSIG
  • 181700Z 15009KT CAVOK 29/17 Q1015 NOSIG
  • 181630Z 15010KT CAVOK 30/16 Q1015 NOSIG
  • 181600Z 16009KT 130V190 CAVOK 30/16 Q1015 NOSIG
  • 181530Z 15009KT 120V180 CAVOK 30/16 Q1015 NOSIG
  • 181500Z 15011KT CAVOK 30/16 Q1015 NOSIG
  • 181430Z 15008KT 120V180 CAVOK 31/16 Q1016 NOSIG

TAF TAF LZIB
Valid from the 18 at 18:00 until the 19 at 18:00 UTC


181715Z 1818/1918 15009KT CAVOK
BECMG 1821/1823 13004KT
BECMG 1907/1909 17007KT



MET'MAP, your aeronautical weather chart ! - Copyright ORBIFLY December 2007 - Disclaimer

ORBIFLY MET'MAP TEAM :

Programming & Development : Alexandra Zaïnal
Original concept : Baudouin d'Aumeries
Technical & hardware support : Manuel Goepfert
Assistance : Marc-Olivier Méhu




SOURCES & CREDITS :

   NOAA